sensor_id;sensor_type;location;lat;lon;timestamp;temperature;humidity
21439;DHT22;10880;50.302;18.736;2022-10-31T00:00:07;16.30;61.90
21439;DHT22;10880;50.302;18.736;2022-10-31T00:02:37;16.30;62.50
21439;DHT22;10880;50.302;18.736;2022-10-31T00:05:04;19.20;64.00
21439;DHT22;10880;50.302;18.736;2022-10-31T00:07:32;16.20;62.00
21439;DHT22;10880;50.302;18.736;2022-10-31T00:09:58;16.20;61.80
21439;DHT22;10880;50.302;18.736;2022-10-31T00:12:26;16.20;61.70
21439;DHT22;10880;50.302;18.736;2022-10-31T00:17:19;16.20;61.70
21439;DHT22;10880;50.302;18.736;2022-10-31T00:19:45;16.10;61.90
21439;DHT22;10880;50.302;18.736;2022-10-31T00:22:14;16.10;61.80
21439;DHT22;10880;50.302;18.736;2022-10-31T00:24:41;16.10;61.70
21439;DHT22;10880;50.302;18.736;2022-10-31T00:27:07;16.10;61.70
21439;DHT22;10880;50.302;18.736;2022-10-31T00:29:33;16.00;61.50
21439;DHT22;10880;50.302;18.736;2022-10-31T00:32:00;16.00;61.70
21439;DHT22;10880;50.302;18.736;2022-10-31T00:34:26;16.00;61.50
21439;DHT22;10880;50.302;18.736;2022-10-31T00:36:53;15.90;61.70
21439;DHT22;10880;50.302;18.736;2022-10-31T00:39:19;15.90;61.70
21439;DHT22;10880;50.302;18.736;2022-10-31T00:41:47;16.00;62.20
21439;DHT22;10880;50.302;18.736;2022-10-31T00:44:13;15.90;61.70
21439;DHT22;10880;50.302;18.736;2022-10-31T00:46:39;15.90;61.60
21439;DHT22;10880;50.302;18.736;2022-10-31T00:49:06;15.80;61.50
21439;DHT22;10880;50.302;18.736;2022-10-31T00:51:32;15.80;61.60
21439;DHT22;10880;50.302;18.736;2022-10-31T00:53:58;15.80;61.60
21439;DHT22;10880;50.302;18.736;2022-10-31T00:56:24;15.80;61.60
21439;DHT22;10880;50.302;18.736;2022-10-31T00:58:52;15.80;62.00
21439;DHT22;10880;50.302;18.736;2022-10-31T01:01:20;15.80;61.80
21439;DHT22;10880;50.302;18.736;2022-10-31T01:03:46;15.70;61.60
21439;DHT22;10880;50.302;18.736;2022-10-31T01:06:15;15.70;61.60
21439;DHT22;10880;50.302;18.736;2022-10-31T01:08:42;15.70;61.50
21439;DHT22;10880;50.302;18.736;2022-10-31T01:11:17;15.70;61.90
21439;DHT22;10880;50.302;18.736;2022-10-31T01:13:45;15.70;62.10
21439;DHT22;10880;50.302;18.736;2022-10-31T01:16:14;15.80;62.00
21439;DHT22;10880;50.302;18.736;2022-10-31T01:18:41;15.70;62.00
21439;DHT22;10880;50.302;18.736;2022-10-31T01:21:16;15.60;61.50
21439;DHT22;10880;50.302;18.736;2022-10-31T01:23:43;15.60;61.90
21439;DHT22;10880;50.302;18.736;2022-10-31T01:26:14;15.60;61.50
21439;DHT22;10880;50.302;18.736;2022-10-31T01:28:56;15.50;61.90
21439;DHT22;10880;50.302;18.736;2022-10-31T01:31:27;15.50;61.90
21439;DHT22;10880;50.302;18.736;2022-10-31T01:33:55;15.50;61.80
21439;DHT22;10880;50.302;18.736;2022-10-31T01:36:27;15.50;61.80
21439;DHT22;10880;50.302;18.736;2022-10-31T01:38:57;15.50;61.70
21439;DHT22;10880;50.302;18.736;2022-10-31T01:41:29;15.50;61.70
21439;DHT22;10880;50.302;18.736;2022-10-31T01:43:58;15.40;61.20
21439;DHT22;10880;50.302;18.736;2022-10-31T01:46:29;15.40;61.80
21439;DHT22;10880;50.302;18.736;2022-10-31T01:49:03;15.40;61.20
21439;DHT22;10880;50.302;18.736;2022-10-31T01:51:33;15.30;61.70
21439;DHT22;10880;50.302;18.736;2022-10-31T01:54:04;15.30;61.70
21439;DHT22;10880;50.302;18.736;2022-10-31T01:56:36;15.30;61.70
21439;DHT22;10880;50.302;18.736;2022-10-31T01:59:06;15.30;61.80
21439;DHT22;10880;50.302;18.736;2022-10-31T02:01:33;15.30;61.80
21439;DHT22;10880;50.302;18.736;2022-10-31T02:04:00;15.30;61.30
21439;DHT22;10880;50.302;18.736;2022-10-31T02:06:37;15.20;61.10
21439;DHT22;10880;50.302;18.736;2022-10-31T02:09:06;15.20;61.70
21439;DHT22;10880;50.302;18.736;2022-10-31T02:11:34;15.30;61.30
21439;DHT22;10880;50.302;18.736;2022-10-31T02:14:03;15.20;61.70
21439;DHT22;10880;50.302;18.736;2022-10-31T02:16:30;15.20;61.50
21439;DHT22;10880;50.302;18.736;2022-10-31T02:27:31;15.10;61.70
21439;DHT22;10880;50.302;18.736;2022-10-31T02:30:24;15.10;61.60
21439;DHT22;10880;50.302;18.736;2022-10-31T02:32:56;15.00;61.60
21439;DHT22;10880;50.302;18.736;2022-10-31T02:35:55;15.00;61.50
21439;DHT22;10880;50.302;18.736;2022-10-31T02:47:05;15.00;61.60
21439;DHT22;10880;50.302;18.736;2022-10-31T02:49:50;14.90;61.20
21439;DHT22;10880;50.302;18.736;2022-10-31T02:52:21;14.90;61.50
21439;DHT22;10880;50.302;18.736;2022-10-31T02:54:50;15.00;61.70
21439;DHT22;10880;50.302;18.736;2022-10-31T02:57:29;14.80;61.20
21439;DHT22;10880;50.302;18.736;2022-10-31T03:00:05;14.90;61.50
21439;DHT22;10880;50.302;18.736;2022-10-31T03:10:56;14.80;61.50
21439;DHT22;10880;50.302;18.736;2022-10-31T03:13:52;14.70;61.40
21439;DHT22;10880;50.302;18.736;2022-10-31T03:16:36;14.70;61.40
21439;DHT22;10880;50.302;18.736;2022-10-31T03:19:09;14.70;60.80
21439;DHT22;10880;50.302;18.736;2022-10-31T03:21:46;14.70;61.40
21439;DHT22;10880;50.302;18.736;2022-10-31T03:24:15;14.70;61.50
21439;DHT22;10880;50.302;18.736;2022-10-31T03:26:47;14.70;61.30
21439;DHT22;10880;50.302;18.736;2022-10-31T03:29:17;14.60;61.30
21439;DHT22;10880;50.302;18.736;2022-10-31T03:32:27;14.60;60.70
21439;DHT22;10880;50.302;18.736;2022-10-31T03:34:58;14.60;61.30
21439;DHT22;10880;50.302;18.736;2022-10-31T03:37:28;14.60;61.20
21439;DHT22;10880;50.302;18.736;2022-10-31T03:39:58;14.50;60.70
21439;DHT22;10880;50.302;18.736;2022-10-31T03:42:30;14.50;61.20
21439;DHT22;10880;50.302;18.736;2022-10-31T03:45:11;14.60;61.40
21439;DHT22;10880;50.302;18.736;2022-10-31T03:47:41;14.50;61.30
21439;DHT22;10880;50.302;18.736;2022-10-31T03:50:09;14.70;61.30
21439;DHT22;10880;50.302;18.736;2022-10-31T03:55:17;14.50;61.20
21439;DHT22;10880;50.302;18.736;2022-10-31T03:58:05;14.60;61.30
21439;DHT22;10880;50.302;18.736;2022-10-31T04:00:35;14.40;61.20
21439;DHT22;10880;50.302;18.736;2022-10-31T04:03:32;14.40;61.10
21439;DHT22;10880;50.302;18.736;2022-10-31T04:06:03;14.40;61.20
21439;DHT22;10880;50.302;18.736;2022-10-31T04:08:33;14.40;61.10
21439;DHT22;10880;50.302;18.736;2022-10-31T04:11:04;14.40;61.20
21439;DHT22;10880;50.302;18.736;2022-10-31T04:13:33;14.40;61.20
21439;DHT22;10880;50.302;18.736;2022-10-31T04:16:08;14.30;61.10
21439;DHT22;10880;50.302;18.736;2022-10-31T04:18:36;14.30;61.10
21439;DHT22;10880;50.302;18.736;2022-10-31T04:21:06;14.30;60.80
21439;DHT22;10880;50.302;18.736;2022-10-31T04:23:35;14.30;61.20
21439;DHT22;10880;50.302;18.736;2022-10-31T04:26:12;14.30;61.20
21439;DHT22;10880;50.302;18.736;2022-10-31T04:28:38;14.30;61.20
21439;DHT22;10880;50.302;18.736;2022-10-31T04:31:05;14.30;60.70
21439;DHT22;10880;50.302;18.736;2022-10-31T04:33:34;14.20;60.70
21439;DHT22;10880;50.302;18.736;2022-10-31T04:36:01;14.20;60.70
21439;DHT22;10880;50.302;18.736;2022-10-31T04:38:28;14.20;60.70
21439;DHT22;10880;50.302;18.736;2022-10-31T04:40:57;14.30;60.80
21439;DHT22;10880;50.302;18.736;2022-10-31T04:43:46;14.20;60.90
21439;DHT22;10880;50.302;18.736;2022-10-31T04:46:13;14.20;60.70
21439;DHT22;10880;50.302;18.736;2022-10-31T04:48:40;14.20;60.60
21439;DHT22;10880;50.302;18.736;2022-10-31T04:51:07;14.10;60.60
21439;DHT22;10880;50.302;18.736;2022-10-31T04:56:19;14.10;60.30
21439;DHT22;10880;50.302;18.736;2022-10-31T05:01:17;14.10;60.40
21439;DHT22;10880;50.302;18.736;2022-10-31T05:03:45;14.10;60.40
21439;DHT22;10880;50.302;18.736;2022-10-31T05:06:11;14.10;60.40
21439;DHT22;10880;50.302;18.736;2022-10-31T05:08:41;14.10;60.70
21439;DHT22;10880;50.302;18.736;2022-10-31T05:11:09;14.00;60.50
21439;DHT22;10880;50.302;18.736;2022-10-31T05:16:11;14.00;60.40
21439;DHT22;10880;50.302;18.736;2022-10-31T05:18:53;14.00;60.70
21439;DHT22;10880;50.302;18.736;2022-10-31T05:21:38;14.00;60.60
21439;DHT22;10880;50.302;18.736;2022-10-31T05:24:07;14.00;60.50
21439;DHT22;10880;50.302;18.736;2022-10-31T05:26:39;14.00;60.60
21439;DHT22;10880;50.302;18.736;2022-10-31T05:29:05;14.00;60.30
21439;DHT22;10880;50.302;18.736;2022-10-31T05:31:32;14.00;60.20
21439;DHT22;10880;50.302;18.736;2022-10-31T05:33:59;14.80;61.10
21439;DHT22;10880;50.302;18.736;2022-10-31T05:36:45;13.90;60.60
21439;DHT22;10880;50.302;18.736;2022-10-31T05:39:15;13.90;60.60
21439;DHT22;10880;50.302;18.736;2022-10-31T05:41:52;13.90;60.70
21439;DHT22;10880;50.302;18.736;2022-10-31T05:44:28;13.90;60.60
21439;DHT22;10880;50.302;18.736;2022-10-31T05:47:12;13.90;60.70
21439;DHT22;10880;50.302;18.736;2022-10-31T05:50:28;13.90;60.30
21439;DHT22;10880;50.302;18.736;2022-10-31T05:53:10;13.90;60.90
21439;DHT22;10880;50.302;18.736;2022-10-31T05:55:38;13.90;60.90
21439;DHT22;10880;50.302;18.736;2022-10-31T05:58:20;13.80;60.60
21439;DHT22;10880;50.302;18.736;2022-10-31T06:01:06;13.90;60.60
21439;DHT22;10880;50.302;18.736;2022-10-31T06:03:32;13.80;60.60
21439;DHT22;10880;50.302;18.736;2022-10-31T06:06:04;13.80;60.60
21439;DHT22;10880;50.302;18.736;2022-10-31T06:08:36;13.80;60.60
21439;DHT22;10880;50.302;18.736;2022-10-31T06:11:08;13.90;61.00
21439;DHT22;10880;50.302;18.736;2022-10-31T06:13:53;13.80;61.00
21439;DHT22;10880;50.302;18.736;2022-10-31T06:18:54;13.80;60.50
21439;DHT22;10880;50.302;18.736;2022-10-31T06:21:21;13.80;60.70
21439;DHT22;10880;50.302;18.736;2022-10-31T06:23:50;13.80;60.70
21439;DHT22;10880;50.302;18.736;2022-10-31T06:26:35;13.80;60.70
21439;DHT22;10880;50.302;18.736;2022-10-31T06:29:06;13.80;61.20
21439;DHT22;10880;50.302;18.736;2022-10-31T06:36:22;13.80;60.80
21439;DHT22;10880;50.302;18.736;2022-10-31T06:38:49;13.90;61.10
21439;DHT22;10880;50.302;18.736;2022-10-31T06:43:49;13.80;61.00
21439;DHT22;10880;50.302;18.736;2022-10-31T06:46:26;13.90;61.50
21439;DHT22;10880;50.302;18.736;2022-10-31T06:52:02;14.00;61.40
21439;DHT22;10880;50.302;18.736;2022-10-31T06:54:29;14.00;61.40
21439;DHT22;10880;50.302;18.736;2022-10-31T06:59:22;14.00;61.50
21439;DHT22;10880;50.302;18.736;2022-10-31T07:02:11;14.00;61.90
21439;DHT22;10880;50.302;18.736;2022-10-31T07:04:41;14.10;61.90
21439;DHT22;10880;50.302;18.736;2022-10-31T07:07:07;14.10;62.10
21439;DHT22;10880;50.302;18.736;2022-10-31T07:09:35;14.10;62.10
21439;DHT22;10880;50.302;18.736;2022-10-31T07:12:04;14.20;62.60
21439;DHT22;10880;50.302;18.736;2022-10-31T07:14:35;14.20;62.20
21439;DHT22;10880;50.302;18.736;2022-10-31T07:17:02;14.30;62.40
21439;DHT22;10880;50.302;18.736;2022-10-31T07:19:34;14.30;62.50
21439;DHT22;10880;50.302;18.736;2022-10-31T07:22:01;14.30;62.60
21439;DHT22;10880;50.302;18.736;2022-10-31T07:24:29;14.40;62.70
21439;DHT22;10880;50.302;18.736;2022-10-31T07:27:25;14.50;62.90
21439;DHT22;10880;50.302;18.736;2022-10-31T07:29:52;14.60;62.90
21439;DHT22;10880;50.302;18.736;2022-10-31T07:32:18;14.60;62.80
21439;DHT22;10880;50.302;18.736;2022-10-31T07:34:51;14.70;63.10
21439;DHT22;10880;50.302;18.736;2022-10-31T07:37:21;14.70;63.20
21439;DHT22;10880;50.302;18.736;2022-10-31T07:39:48;14.80;63.30
21439;DHT22;10880;50.302;18.736;2022-10-31T07:42:16;14.80;63.40
21439;DHT22;10880;50.302;18.736;2022-10-31T07:44:44;14.90;63.70
21439;DHT22;10880;50.302;18.736;2022-10-31T07:47:30;15.00;63.90
21439;DHT22;10880;50.302;18.736;2022-10-31T07:50:31;15.10;63.70
21439;DHT22;10880;50.302;18.736;2022-10-31T07:53:18;15.10;64.40
21439;DHT22;10880;50.302;18.736;2022-10-31T07:59:51;15.30;64.80
21439;DHT22;10880;50.302;18.736;2022-10-31T08:04:48;15.50;64.10
21439;DHT22;10880;50.302;18.736;2022-10-31T08:07:46;15.50;64.60
21439;DHT22;10880;50.302;18.736;2022-10-31T08:10:19;15.60;64.70
21439;DHT22;10880;50.302;18.736;2022-10-31T08:12:46;15.80;65.20
21439;DHT22;10880;50.302;18.736;2022-10-31T08:15:13;15.80;64.90
21439;DHT22;10880;50.302;18.736;2022-10-31T08:17:39;15.90;64.90
21439;DHT22;10880;50.302;18.736;2022-10-31T08:20:09;16.00;65.50
21439;DHT22;10880;50.302;18.736;2022-10-31T08:22:42;16.00;65.60
21439;DHT22;10880;50.302;18.736;2022-10-31T08:25:09;16.10;65.20
21439;DHT22;10880;50.302;18.736;2022-10-31T08:27:35;16.20;65.30
21439;DHT22;10880;50.302;18.736;2022-10-31T08:30:02;16.30;65.30
21439;DHT22;10880;50.302;18.736;2022-10-31T08:32:29;16.40;65.50
21439;DHT22;10880;50.302;18.736;2022-10-31T08:34:58;16.50;65.50
21439;DHT22;10880;50.302;18.736;2022-10-31T08:37:52;16.60;65.70
21439;DHT22;10880;50.302;18.736;2022-10-31T08:40:19;16.70;66.60
21439;DHT22;10880;50.302;18.736;2022-10-31T08:42:45;16.80;65.30
21439;DHT22;10880;50.302;18.736;2022-10-31T08:45:12;17.50;65.80
21439;DHT22;10880;50.302;18.736;2022-10-31T08:50:05;16.90;65.10
21439;DHT22;10880;50.302;18.736;2022-10-31T08:52:34;17.10;65.50
21439;DHT22;10880;50.302;18.736;2022-10-31T08:55:03;17.10;65.50
21439;DHT22;10880;50.302;18.736;2022-10-31T08:57:59;17.20;65.60
21439;DHT22;10880;50.302;18.736;2022-10-31T09:00:34;17.30;65.40
21439;DHT22;10880;50.302;18.736;2022-10-31T09:03:10;17.30;65.40
21439;DHT22;10880;50.302;18.736;2022-10-31T09:05:37;17.40;65.60
21439;DHT22;10880;50.302;18.736;2022-10-31T09:08:05;17.50;65.00
21439;DHT22;10880;50.302;18.736;2022-10-31T09:10:35;17.50;65.40
21439;DHT22;10880;50.302;18.736;2022-10-31T09:13:10;17.60;65.50
21439;DHT22;10880;50.302;18.736;2022-10-31T09:15:57;17.70;65.50
21439;DHT22;10880;50.302;18.736;2022-10-31T09:18:27;17.80;65.20
21439;DHT22;10880;50.302;18.736;2022-10-31T09:21:00;17.80;65.20
21439;DHT22;10880;50.302;18.736;2022-10-31T09:25:59;18.00;64.70
21439;DHT22;10880;50.302;18.736;2022-10-31T09:28:42;18.00;65.30
21439;DHT22;10880;50.302;18.736;2022-10-31T09:31:15;18.10;64.90
21439;DHT22;10880;50.302;18.736;2022-10-31T09:34:05;18.10;65.00
21439;DHT22;10880;50.302;18.736;2022-10-31T09:36:38;18.20;65.00
21439;DHT22;10880;50.302;18.736;2022-10-31T09:56:14;18.60;65.10
21439;DHT22;10880;50.302;18.736;2022-10-31T09:58:53;18.70;65.10
21439;DHT22;10880;50.302;18.736;2022-10-31T10:01:29;18.70;65.10
21439;DHT22;10880;50.302;18.736;2022-10-31T10:09:44;18.90;64.90
21439;DHT22;10880;50.302;18.736;2022-10-31T10:12:48;19.00;65.00
21439;DHT22;10880;50.302;18.736;2022-10-31T10:18:26;19.10;65.00
21439;DHT22;10880;50.302;18.736;2022-10-31T10:24:12;19.20;64.80
21439;DHT22;10880;50.302;18.736;2022-10-31T10:26:45;19.30;65.10
21439;DHT22;10880;50.302;18.736;2022-10-31T10:29:35;19.30;64.90
21439;DHT22;10880;50.302;18.736;2022-10-31T10:32:31;19.40;65.10
21439;DHT22;10880;50.302;18.736;2022-10-31T10:35:02;19.40;65.00
21439;DHT22;10880;50.302;18.736;2022-10-31T10:37:38;19.50;64.90
21439;DHT22;10880;50.302;18.736;2022-10-31T10:40:24;19.60;65.10
21439;DHT22;10880;50.302;18.736;2022-10-31T10:45:58;19.70;65.20
21439;DHT22;10880;50.302;18.736;2022-10-31T10:48:55;19.80;65.20
21439;DHT22;10880;50.302;18.736;2022-10-31T10:51:48;19.80;65.20
21439;DHT22;10880;50.302;18.736;2022-10-31T10:57:48;20.00;65.10
21439;DHT22;10880;50.302;18.736;2022-10-31T11:00:24;20.10;65.00
21439;DHT22;10880;50.302;18.736;2022-10-31T11:02:51;20.10;64.80
21439;DHT22;10880;50.302;18.736;2022-10-31T11:05:48;20.20;64.70
21439;DHT22;10880;50.302;18.736;2022-10-31T11:08:36;20.30;64.80
21439;DHT22;10880;50.302;18.736;2022-10-31T11:11:25;20.40;64.60
21439;DHT22;10880;50.302;18.736;2022-10-31T11:13:57;20.40;64.40
21439;DHT22;10880;50.302;18.736;2022-10-31T11:16:36;20.40;64.30
21439;DHT22;10880;50.302;18.736;2022-10-31T11:19:12;20.50;64.30
21439;DHT22;10880;50.302;18.736;2022-10-31T11:21:43;20.50;64.20
21439;DHT22;10880;50.302;18.736;2022-10-31T11:26:38;20.60;63.60
21439;DHT22;10880;50.302;18.736;2022-10-31T11:29:14;20.70;64.00
21439;DHT22;10880;50.302;18.736;2022-10-31T11:31:43;20.70;63.90
21439;DHT22;10880;50.302;18.736;2022-10-31T11:34:32;20.70;63.80
21439;DHT22;10880;50.302;18.736;2022-10-31T11:37:16;20.80;63.90
21439;DHT22;10880;50.302;18.736;2022-10-31T11:39:54;20.80;63.80
21439;DHT22;10880;50.302;18.736;2022-10-31T11:42:22;20.80;63.60
21439;DHT22;10880;50.302;18.736;2022-10-31T11:44:51;20.90;62.80
21439;DHT22;10880;50.302;18.736;2022-10-31T11:47:28;20.90;63.50
21439;DHT22;10880;50.302;18.736;2022-10-31T11:49:57;20.90;63.50
21439;DHT22;10880;50.302;18.736;2022-10-31T11:56:16;21.00;63.30
21439;DHT22;10880;50.302;18.736;2022-10-31T11:58:43;21.10;63.10
21439;DHT22;10880;50.302;18.736;2022-10-31T12:01:39;21.00;62.80
21439;DHT22;10880;50.302;18.736;2022-10-31T12:04:11;21.10;62.80
21439;DHT22;10880;50.302;18.736;2022-10-31T12:06:42;21.10;62.80
21439;DHT22;10880;50.302;18.736;2022-10-31T12:12:05;21.20;62.40
21439;DHT22;10880;50.302;18.736;2022-10-31T12:25:52;21.30;62.20
21439;DHT22;10880;50.302;18.736;2022-10-31T12:29:07;21.40;62.30
21439;DHT22;10880;50.302;18.736;2022-10-31T12:31:39;21.30;62.30
21439;DHT22;10880;50.302;18.736;2022-10-31T12:42:46;21.40;61.90
21439;DHT22;10880;50.302;18.736;2022-10-31T13:01:41;21.50;61.40
21439;DHT22;10880;50.302;18.736;2022-10-31T13:04:20;21.50;61.60
21439;DHT22;10880;50.302;18.736;2022-10-31T13:06:59;21.50;61.50
21439;DHT22;10880;50.302;18.736;2022-10-31T13:09:33;21.60;61.50
21439;DHT22;10880;50.302;18.736;2022-10-31T13:12:07;21.60;61.50
21439;DHT22;10880;50.302;18.736;2022-10-31T13:14:56;21.60;61.50
21439;DHT22;10880;50.302;18.736;2022-10-31T13:17:29;21.60;61.30
21439;DHT22;10880;50.302;18.736;2022-10-31T13:22:42;21.70;61.50
21439;DHT22;10880;50.302;18.736;2022-10-31T13:25:24;21.70;61.40
21439;DHT22;10880;50.302;18.736;2022-10-31T13:30:40;21.70;60.80
21439;DHT22;10880;50.302;18.736;2022-10-31T13:33:18;21.70;61.10
21439;DHT22;10880;50.302;18.736;2022-10-31T13:41:30;21.90;60.70
21439;DHT22;10880;50.302;18.736;2022-10-31T13:44:03;21.70;60.90
21439;DHT22;10880;50.302;18.736;2022-10-31T13:48:59;21.70;60.60
21439;DHT22;10880;50.302;18.736;2022-10-31T13:51:29;21.70;60.70
21439;DHT22;10880;50.302;18.736;2022-10-31T13:54:19;21.70;60.80
21439;DHT22;10880;50.302;18.736;2022-10-31T13:56:49;21.70;60.70
21439;DHT22;10880;50.302;18.736;2022-10-31T14:02:14;21.70;60.60
21439;DHT22;10880;50.302;18.736;2022-10-31T14:04:50;21.70;60.40
21439;DHT22;10880;50.302;18.736;2022-10-31T14:07:21;21.70;60.60
21439;DHT22;10880;50.302;18.736;2022-10-31T14:15:31;21.60;60.40
21439;DHT22;10880;50.302;18.736;2022-10-31T14:18:00;21.60;60.00
21439;DHT22;10880;50.302;18.736;2022-10-31T14:31:38;21.60;60.10
21439;DHT22;10880;50.302;18.736;2022-10-31T14:37:06;21.50;60.20
21439;DHT22;10880;50.302;18.736;2022-10-31T14:45:25;21.50;60.10
21439;DHT22;10880;50.302;18.736;2022-10-31T14:55:54;21.30;60.00
21439;DHT22;10880;50.302;18.736;2022-10-31T14:58:41;21.30;60.00
21439;DHT22;10880;50.302;18.736;2022-10-31T15:01:29;21.30;60.00
21439;DHT22;10880;50.302;18.736;2022-10-31T15:04:22;21.30;60.00
21439;DHT22;10880;50.302;18.736;2022-10-31T15:09:28;21.20;59.60
21439;DHT22;10880;50.302;18.736;2022-10-31T15:11:54;21.20;59.90
21439;DHT22;10880;50.302;18.736;2022-10-31T15:14:29;21.10;59.50
21439;DHT22;10880;50.302;18.736;2022-10-31T15:16:57;21.10;59.90
21439;DHT22;10880;50.302;18.736;2022-10-31T15:19:27;21.10;60.00
21439;DHT22;10880;50.302;18.736;2022-10-31T15:21:57;21.00;59.90
21439;DHT22;10880;50.302;18.736;2022-10-31T15:24:30;21.00;60.00
21439;DHT22;10880;50.302;18.736;2022-10-31T15:26:58;20.90;59.90
21439;DHT22;10880;50.302;18.736;2022-10-31T15:29:27;20.90;59.70
21439;DHT22;10880;50.302;18.736;2022-10-31T15:32:09;20.80;59.50
21439;DHT22;10880;50.302;18.736;2022-10-31T15:34:43;20.80;60.00
21439;DHT22;10880;50.302;18.736;2022-10-31T15:37:21;20.80;59.80
21439;DHT22;10880;50.302;18.736;2022-10-31T15:39:48;20.70;59.90
21439;DHT22;10880;50.302;18.736;2022-10-31T15:42:52;20.70;60.00
21439;DHT22;10880;50.302;18.736;2022-10-31T16:02:23;20.30;59.90
21439;DHT22;10880;50.302;18.736;2022-10-31T16:04:59;20.20;59.90
21439;DHT22;10880;50.302;18.736;2022-10-31T16:07:29;20.10;59.90
21439;DHT22;10880;50.302;18.736;2022-10-31T16:10:00;19.90;59.80
21439;DHT22;10880;50.302;18.736;2022-10-31T16:12:37;20.00;60.00
21439;DHT22;10880;50.302;18.736;2022-10-31T16:15:14;20.00;59.90
21439;DHT22;10880;50.302;18.736;2022-10-31T16:17:48;19.90;60.00
21439;DHT22;10880;50.302;18.736;2022-10-31T16:20:28;19.80;59.50
21439;DHT22;10880;50.302;18.736;2022-10-31T16:22:58;19.80;60.00
21439;DHT22;10880;50.302;18.736;2022-10-31T16:25:29;19.80;60.10
21439;DHT22;10880;50.302;18.736;2022-10-31T16:28:04;19.70;60.00
21439;DHT22;10880;50.302;18.736;2022-10-31T17:31:01;18.50;59.70
21439;DHT22;10880;50.302;18.736;2022-10-31T17:33:27;18.50;59.80
21439;DHT22;10880;50.302;18.736;2022-10-31T17:35:54;18.40;59.90
21439;DHT22;10880;50.302;18.736;2022-10-31T17:38:26;18.30;59.60
21439;DHT22;10880;50.302;18.736;2022-10-31T17:41:13;18.30;60.10
21439;DHT22;10880;50.302;18.736;2022-10-31T17:43:39;18.30;59.80
21439;DHT22;10880;50.302;18.736;2022-10-31T17:46:07;18.30;59.80
21439;DHT22;10880;50.302;18.736;2022-10-31T17:48:34;18.20;60.00
21439;DHT22;10880;50.302;18.736;2022-10-31T17:51:02;18.20;60.60
21439;DHT22;10880;50.302;18.736;2022-10-31T17:53:30;18.10;60.50
21439;DHT22;10880;50.302;18.736;2022-10-31T17:56:05;18.10;60.50
21439;DHT22;10880;50.302;18.736;2022-10-31T17:58:33;18.10;60.60
21439;DHT22;10880;50.302;18.736;2022-10-31T18:01:05;18.00;60.40
21439;DHT22;10880;50.302;18.736;2022-10-31T18:03:33;18.00;60.50
21439;DHT22;10880;50.302;18.736;2022-10-31T18:06:00;18.10;60.50
21439;DHT22;10880;50.302;18.736;2022-10-31T18:08:31;18.00;59.90
21439;DHT22;10880;50.302;18.736;2022-10-31T18:11:04;17.90;59.90
21439;DHT22;10880;50.302;18.736;2022-10-31T18:13:38;17.90;59.90
21439;DHT22;10880;50.302;18.736;2022-10-31T18:16:14;17.90;60.20
21439;DHT22;10880;50.302;18.736;2022-10-31T18:18:42;17.80;60.50
21439;DHT22;10880;50.302;18.736;2022-10-31T18:21:09;17.80;60.10
21439;DHT22;10880;50.302;18.736;2022-10-31T18:23:37;17.80;60.30
21439;DHT22;10880;50.302;18.736;2022-10-31T18:26:03;17.80;59.90
21439;DHT22;10880;50.302;18.736;2022-10-31T18:28:30;17.70;60.00
21439;DHT22;10880;50.302;18.736;2022-10-31T18:31:09;17.70;59.90
21439;DHT22;10880;50.302;18.736;2022-10-31T18:33:39;17.70;60.10
21439;DHT22;10880;50.302;18.736;2022-10-31T18:36:10;17.70;60.20
21439;DHT22;10880;50.302;18.736;2022-10-31T18:38:41;17.60;59.80
21439;DHT22;10880;50.302;18.736;2022-10-31T18:41:10;17.60;60.40
21439;DHT22;10880;50.302;18.736;2022-10-31T18:43:43;17.60;60.50
21439;DHT22;10880;50.302;18.736;2022-10-31T18:46:16;17.50;60.50
21439;DHT22;10880;50.302;18.736;2022-10-31T18:48:44;17.50;60.00
21439;DHT22;10880;50.302;18.736;2022-10-31T18:51:13;17.50;60.40
21439;DHT22;10880;50.302;18.736;2022-10-31T18:53:40;17.40;60.20
21439;DHT22;10880;50.302;18.736;2022-10-31T18:56:12;17.40;60.40
21439;DHT22;10880;50.302;18.736;2022-10-31T18:58:38;17.40;59.70
21439;DHT22;10880;50.302;18.736;2022-10-31T19:01:07;17.30;59.80
21439;DHT22;10880;50.302;18.736;2022-10-31T19:06:00;17.30;59.80
21439;DHT22;10880;50.302;18.736;2022-10-31T19:08:28;17.30;60.00
21439;DHT22;10880;50.302;18.736;2022-10-31T19:10:55;17.20;60.00
21439;DHT22;10880;50.302;18.736;2022-10-31T19:13:22;17.20;60.00
21439;DHT22;10880;50.302;18.736;2022-10-31T19:15:51;17.20;60.40
21439;DHT22;10880;50.302;18.736;2022-10-31T19:18:17;17.20;59.80
21439;DHT22;10880;50.302;18.736;2022-10-31T19:20:44;17.10;60.10
21439;DHT22;10880;50.302;18.736;2022-10-31T19:23:10;17.10;60.00
21439;DHT22;10880;50.302;18.736;2022-10-31T19:25:37;17.10;59.70
21439;DHT22;10880;50.302;18.736;2022-10-31T19:28:04;17.10;59.80
21439;DHT22;10880;50.302;18.736;2022-10-31T19:30:30;17.00;59.70
21439;DHT22;10880;50.302;18.736;2022-10-31T19:32:57;17.00;59.80
21439;DHT22;10880;50.302;18.736;2022-10-31T19:35:23;17.00;59.70
21439;DHT22;10880;50.302;18.736;2022-10-31T19:37:50;16.90;59.80
21439;DHT22;10880;50.302;18.736;2022-10-31T19:40:16;16.90;59.60
21439;DHT22;10880;50.302;18.736;2022-10-31T19:42:45;16.80;59.70
21439;DHT22;10880;50.302;18.736;2022-10-31T19:50:07;16.70;59.70
21439;DHT22;10880;50.302;18.736;2022-10-31T19:52:34;16.70;60.30
21439;DHT22;10880;50.302;18.736;2022-10-31T19:55:01;16.70;59.80
21439;DHT22;10880;50.302;18.736;2022-10-31T19:57:27;17.10;60.30
21439;DHT22;10880;50.302;18.736;2022-10-31T19:59:57;16.60;60.00
21439;DHT22;10880;50.302;18.736;2022-10-31T20:02:25;16.60;60.50
21439;DHT22;10880;50.302;18.736;2022-10-31T20:04:52;16.60;60.20
21439;DHT22;10880;50.302;18.736;2022-10-31T20:07:18;16.50;59.80
21439;DHT22;10880;50.302;18.736;2022-10-31T20:09:45;16.50;59.60
21439;DHT22;10880;50.302;18.736;2022-10-31T20:12:11;16.50;59.80
21439;DHT22;10880;50.302;18.736;2022-10-31T20:14:38;16.50;59.70
21439;DHT22;10880;50.302;18.736;2022-10-31T20:17:04;16.50;59.80
21439;DHT22;10880;50.302;18.736;2022-10-31T20:19:32;16.40;60.00
21439;DHT22;10880;50.302;18.736;2022-10-31T20:22:00;16.40;60.10
21439;DHT22;10880;50.302;18.736;2022-10-31T20:24:26;16.40;59.80
21439;DHT22;10880;50.302;18.736;2022-10-31T20:26:52;16.40;59.90
21439;DHT22;10880;50.302;18.736;2022-10-31T20:29:19;16.30;59.70
21439;DHT22;10880;50.302;18.736;2022-10-31T20:31:46;16.30;60.20